Time;durP1;ratioP1;P1;durP2;ratioP2;P2;SDS_P1;SDS_P2;PMS_P1;PMS_P2;Temp;Humidity;BMP_temperature;BMP_pressure;BME280_temperature;BME280_humidity;BME280_pressure;Samples;Min_cycle;Max_cycle;Signal;HPM_P1;HPM_P2
2023/05/01 00:00:09;;;;;;;;;;;;;;;18.22;51.70;101470.59;2345528;76;50811;-75
2023/05/01 00:03:13;;;;;;;;;;;;;;;18.22;51.69;101464.73;2313462;76;52674;-75
2023/05/01 00:06:14;;;;;;;;;;;;;;;18.21;51.70;101474.25;2323020;76;50379;-75
2023/05/01 00:09:17;;;;;;;;;;;;;;;18.20;51.72;101469.91;2295710;76;50088;-75
2023/05/01 00:12:19;;;;;;;;;;;;;;;18.19;51.75;101469.08;2337540;75;51693;-75
2023/05/01 00:15:20;;;;;;;;;;;;;;;18.19;51.73;101470.92;2314843;76;51199;-76
2023/05/01 00:18:22;;;;;;;;;;;;;;;18.19;51.70;101466.90;2341850;75;50677;-75
2023/05/01 00:21:24;;;;;;;;;;;;;;;18.21;51.70;101473.78;2337592;75;51496;-76
2023/05/01 00:24:26;;;;;;;;;;;;;;;18.21;51.69;101471.57;2337442;75;51517;-74
2023/05/01 00:27:27;;;;;;;;;;;;;;;18.19;51.69;101465.56;2337569;76;50560;-74
2023/05/01 00:30:29;;;;;;;;;;;;;;;18.19;51.71;101461.04;2342194;75;50725;-75
2023/05/01 00:33:31;;;;;;;;;;;;;;;18.18;51.67;101463.86;2342118;75;51603;-74
2023/05/01 00:36:32;;;;;;;;;;;;;;;18.20;51.64;101463.21;2299843;76;52405;-75
2023/05/01 00:39:34;;;;;;;;;;;;;;;18.18;51.62;101459.34;2315426;76;52529;-75
2023/05/01 00:42:38;;;;;;;;;;;;;;;18.19;51.67;101459.70;2342021;75;50392;-75
2023/05/01 00:45:45;;;;;;;;;;;;;;;18.19;51.63;101456.19;2337308;76;50779;-74
2023/05/01 00:48:46;;;;;;;;;;;;;;;18.19;51.62;101452.17;2337058;75;51613;-74
2023/05/01 00:51:48;;;;;;;;;;;;;;;18.19;51.63;101450.83;2341974;75;50113;-74
2023/05/01 00:54:51;;;;;;;;;;;;;;;18.18;51.59;101451.81;2337252;76;51549;-73
2023/05/01 00:57:53;;;;;;;;;;;;;;;18.18;51.67;101448.62;2337367;76;50722;-74
2023/05/01 01:00:55;;;;;;;;;;;;;;;18.18;51.64;101441.09;2337423;75;50714;-73
2023/05/01 01:03:57;;;;;;;;;;;;;;;18.18;51.59;101449.12;2341723;75;51579;-74
2023/05/01 01:07:00;;;;;;;;;;;;;;;18.18;51.67;101441.93;2311427;76;51530;-74
2023/05/01 01:10:20;;;;;;;;;;;;;;;18.17;51.57;101437.58;2297601;77;51587;-74
2023/05/01 01:13:23;;;;;;;;;;;;;;;18.17;51.57;101438.09;2298037;76;50724;-74
2023/05/01 01:16:26;;;;;;;;;;;;;;;18.16;51.65;101437.25;2261403;77;52311;-74
2023/05/01 01:19:45;;;;;;;;;;;;;;;18.17;51.64;101436.75;2297897;77;51784;-74
2023/05/01 01:22:48;;;;;;;;;;;;;;;18.16;51.57;101436.39;2298031;76;51631;-73
2023/05/01 01:25:50;;;;;;;;;;;;;;;18.16;51.55;101435.05;2297564;77;50058;-74
2023/05/01 01:29:10;;;;;;;;;;;;;;;18.16;51.56;101431.91;2297769;77;50362;-74
2023/05/01 01:32:16;;;;;;;;;;;;;;;18.17;51.53;101426.87;2297812;77;51713;-75
2023/05/01 01:35:19;;;;;;;;;;;;;;;18.15;51.55;101434.73;2307577;76;51536;-74
2023/05/01 01:38:26;;;;;;;;;;;;;;;18.14;51.64;101421.84;2320562;76;50825;-75
2023/05/01 01:41:29;;;;;;;;;;;;;;;18.16;51.54;101418.98;2300628;76;52604;-74
2023/05/01 01:44:35;;;;;;;;;;;;;;;18.15;51.54;101410.63;2335030;76;52386;-75
2023/05/01 01:47:37;;;;;;;;;;;;;;;18.15;51.56;101410.63;2333542;76;50754;-75
2023/05/01 01:50:39;;;;;;;;;;;;;;;18.13;51.53;101412.11;2335285;76;51468;-75
2023/05/01 01:53:41;;;;;;;;;;;;;;;18.14;51.60;101415.66;2335254;76;50646;-75
2023/05/01 01:56:43;;;;;;;;;;;;;;;18.14;51.52;101414.31;2334596;76;50060;-74
2023/05/01 01:59:44;;;;;;;;;;;;;;;18.14;51.57;101400.92;2334786;76;51577;-75
2023/05/01 02:02:46;;;;;;;;;;;;;;;18.14;51.52;101407.62;2334708;76;50315;-75
2023/05/01 02:05:47;;;;;;;;;;;;;;;18.13;51.56;101397.38;2302827;76;51200;-75
2023/05/01 02:08:49;;;;;;;;;;;;;;;18.14;51.45;101400.92;2307476;76;50286;-75
2023/05/01 02:11:51;;;;;;;;;;;;;;;18.13;51.54;101392.53;2297875;77;50380;-75
2023/05/01 02:14:53;;;;;;;;;;;;;;;18.13;51.51;101395.20;2297300;76;51580;-74
2023/05/01 02:17:54;;;;;;;;;;;;;;;18.13;51.47;101393.87;2275694;76;52404;-75
2023/05/01 02:20:59;;;;;;;;;;;;;;;18.12;51.48;101396.22;2297533;77;51469;-72
2023/05/01 02:24:01;;;;;;;;;;;;;;;18.13;51.50;101392.53;2297262;77;51578;-74
2023/05/01 02:27:05;;;;;;;;;;;;;;;18.13;51.50;101389.84;2297520;77;51666;-75
2023/05/01 02:30:08;;;;;;;;;;;;;;;18.13;51.56;101385.33;2276153;77;51611;-74
2023/05/01 02:33:09;;;;;;;;;;;;;;;18.13;51.49;101384.49;2276621;77;50724;-74
2023/05/01 02:36:12;;;;;;;;;;;;;;;18.13;51.52;101381.81;2309940;76;51562;-74
2023/05/01 02:39:13;;;;;;;;;;;;;;;18.12;51.47;101379.64;2332915;76;50054;-75
2023/05/01 02:42:15;;;;;;;;;;;;;;;18.11;51.47;101368.60;2301368;76;51706;-75
2023/05/01 02:45:20;;;;;;;;;;;;;;;18.11;51.52;101365.06;2335333;76;50714;-74
2023/05/01 02:48:23;;;;;;;;;;;;;;;18.12;51.48;101362.74;2335297;76;50231;-74
2023/05/01 02:51:25;;;;;;;;;;;;;;;18.11;51.44;101359.23;2335132;76;51601;-74
2023/05/01 02:54:26;;;;;;;;;;;;;;;18.11;51.48;101356.55;2300148;76;51755;-74
2023/05/01 02:57:28;;;;;;;;;;;;;;;18.12;51.43;101352.03;2336123;76;51567;-74
2023/05/01 03:00:29;;;;;;;;;;;;;;;18.11;51.40;101350.33;2301305;76;51136;-74
2023/05/01 03:03:31;;;;;;;;;;;;;;;18.11;51.43;101342.30;2300564;76;50699;-75
2023/05/01 03:06:33;;;;;;;;;;;;;;;18.10;51.42;101337.95;2300797;76;51452;-74
2023/05/01 03:09:34;;;;;;;;;;;;;;;18.09;51.46;101338.97;2266435;76;52374;-74
2023/05/01 03:12:36;;;;;;;;;;;;;;;18.10;51.46;101329.92;2266243;77;50655;-74
2023/05/01 03:15:38;;;;;;;;;;;;;;;18.09;51.41;101332.27;2267489;76;50735;-74
2023/05/01 03:18:39;;;;;;;;;;;;;;;18.10;51.50;101332.59;2297952;77;50692;-74
2023/05/01 03:21:41;;;;;;;;;;;;;;;18.08;51.39;101326.05;2270378;76;52892;-74
2023/05/01 03:24:43;;;;;;;;;;;;;;;18.09;51.38;101324.24;2338943;75;50704;-76
2023/05/01 03:27:44;;;;;;;;;;;;;;;18.10;51.41;101311.17;2337708;76;50665;-75
2023/05/01 03:30:46;;;;;;;;;;;;;;;18.09;51.46;101320.22;2342215;75;50750;-75
2023/05/01 03:33:48;;;;;;;;;;;;;;;18.09;51.40;101308.17;2313986;76;49537;-74
2023/05/01 03:36:49;;;;;;;;;;;;;;;18.09;51.34;101311.69;2313588;76;50681;-74
2023/05/01 03:39:51;;;;;;;;;;;;;;;18.08;51.38;101306.47;2298355;77;51505;-74
2023/05/01 03:42:52;;;;;;;;;;;;;;;18.08;51.37;101308.65;2298385;76;50773;-75
2023/05/01 03:45:54;;;;;;;;;;;;;;;18.07;51.41;101308.32;2276596;77;52630;-74
2023/05/01 03:48:56;;;;;;;;;;;;;;;18.06;51.41;101310.17;2276854;77;50463;-75
2023/05/01 03:51:58;;;;;;;;;;;;;;;18.06;51.39;101309.34;2276880;77;50435;-75
2023/05/01 03:54:59;;;;;;;;;;;;;;;18.07;51.34;101306.98;2276720;77;50426;-75
2023/05/01 03:58:01;;;;;;;;;;;;;;;18.08;51.36;101308.65;2252032;77;51133;-75
2023/05/01 04:01:03;;;;;;;;;;;;;;;18.06;51.37;101307.48;2277030;77;50284;-76
2023/05/01 04:04:04;;;;;;;;;;;;;;;18.08;51.38;101307.81;2276447;76;50653;-75
2023/05/01 04:07:06;;;;;;;;;;;;;;;18.08;51.34;101305.14;2295839;76;50718;-74
2023/05/01 04:10:08;;;;;;;;;;;;;;;18.07;51.36;101306.98;2265292;76;51798;-74
2023/05/01 04:13:10;;;;;;;;;;;;;;;18.09;51.31;101309.51;2265354;77;51543;-75
2023/05/01 04:16:13;;;;;;;;;;;;;;;18.08;51.27;101307.31;2298163;76;50542;-75
2023/05/01 04:19:14;;;;;;;;;;;;;;;18.08;51.26;101307.81;2298154;76;50431;-75
2023/05/01 04:22:16;;;;;;;;;;;;;;;18.08;51.33;101300.61;2264778;76;51925;-74
2023/05/01 04:25:18;;;;;;;;;;;;;;;18.09;51.25;101305.49;2264983;77;50811;-75
2023/05/01 04:28:19;;;;;;;;;;;;;;;18.08;51.33;101305.14;2298012;76;51503;-75
2023/05/01 04:31:21;;;;;;;;;;;;;;;18.08;51.33;101299.78;2265108;77;50431;-75
2023/05/01 04:34:23;;;;;;;;;;;;;;;18.10;51.31;101303.14;2244702;76;52280;-75
2023/05/01 04:37:24;;;;;;;;;;;;;;;18.09;51.28;101300.14;2299289;76;51461;-75
2023/05/01 04:40:26;;;;;;;;;;;;;;;18.09;51.27;101295.61;2335290;76;50283;-75
2023/05/01 04:43:27;;;;;;;;;;;;;;;18.09;51.32;101290.77;2335606;76;50357;-75
2023/05/01 04:46:29;;;;;;;;;;;;;;;18.09;51.32;101288.09;2335258;76;50350;-75
2023/05/01 04:49:31;;;;;;;;;;;;;;;18.09;51.26;101286.75;2301195;76;50342;-75
2023/05/01 04:52:32;;;;;;;;;;;;;;;18.09;51.27;101288.92;2301459;76;50463;-75
2023/05/01 04:55:34;;;;;;;;;;;;;;;18.09;51.33;101285.41;2335256;76;51498;-75
2023/05/01 04:58:36;;;;;;;;;;;;;;;18.09;51.26;101285.41;2301219;76;53070;-75
2023/05/01 05:01:38;;;;;;;;;;;;;;;18.10;51.28;101294.59;2335764;76;51463;-75
2023/05/01 05:04:39;;;;;;;;;;;;;;;18.11;51.25;101282.91;2330024;76;51494;-75
2023/05/01 05:07:41;;;;;;;;;;;;;;;18.10;51.22;101279.87;2326618;75;50765;-75
2023/05/01 05:10:42;;;;;;;;;;;;;;;18.10;51.17;101283.89;2341974;75;51659;-75
2023/05/01 05:13:45;;;;;;;;;;;;;;;18.13;51.18;101285.40;2337472;75;51457;-75
2023/05/01 05:16:46;;;;;;;;;;;;;;;18.18;51.05;101275.86;2337855;75;50699;-75
2023/05/01 05:19:48;;;;;;;;;;;;;;;18.29;50.79;101274.73;2342571;75;51554;-75
2023/05/01 05:22:49;;;;;;;;;;;;;;;18.37;50.67;101283.24;2315938;76;52419;-75
2023/05/01 05:25:51;;;;;;;;;;;;;;;18.45;50.41;101276.06;2337830;75;50749;-74
2023/05/01 05:28:53;;;;;;;;;;;;;;;18.49;50.26;101272.03;2342299;75;51445;-74
2023/05/01 05:31:56;;;;;;;;;;;;;;;18.59;50.06;101261.66;2337851;75;50727;-75
2023/05/01 05:34:57;;;;;;;;;;;;;;;18.69;49.86;101267.69;2332249;75;24362;-75
2023/05/01 05:37:59;;;;;;;;;;;;;;;18.77;49.75;101261.52;2316468;76;51508;-75
2023/05/01 05:41:01;;;;;;;;;;;;;;;18.80;49.92;101259.31;2277225;77;51474;-75
2023/05/01 05:44:03;;;;;;;;;;;;;;;18.89;49.80;101255.63;2298074;76;50723;-75
2023/05/01 05:47:05;;;;;;;;;;;;;;;18.97;49.73;101251.27;2277067;77;50963;-75
2023/05/01 05:50:08;;;;;;;;;;;;;;;19.02;49.70;101250.25;2277071;77;50801;-75
2023/05/01 05:53:10;;;;;;;;;;;;;;;19.07;49.62;101249.23;2297541;77;51754;-74
2023/05/01 05:56:12;;;;;;;;;;;;;;;19.09;49.60;101248.56;2275747;76;50338;-74
2023/05/01 05:59:13;;;;;;;;;;;;;;;19.15;49.55;101250.55;2250821;77;51737;-74
2023/05/01 06:02:15;;;;;;;;;;;;;;;19.19;49.46;101240.30;2297033;76;51459;-74
2023/05/01 06:05:17;;;;;;;;;;;;;;;19.24;49.41;101245.98;2313631;76;50747;-73
2023/05/01 06:08:18;;;;;;;;;;;;;;;19.27;49.43;101237.09;2284355;75;50020;-74
2023/05/01 06:11:20;;;;;;;;;;;;;;;19.33;49.34;101238.25;2297157;77;50884;-74
2023/05/01 06:14:22;;;;;;;;;;;;;;;19.38;49.33;101244.44;2275773;77;51652;-74
2023/05/01 06:17:24;;;;;;;;;;;;;;;19.40;49.23;101238.41;2275843;77;50332;-74
2023/05/01 06:20:25;;;;;;;;;;;;;;;19.43;49.17;101239.39;2297247;76;51449;-73
2023/05/01 06:23:27;;;;;;;;;;;;;;;19.46;49.19;101233.67;2297126;76;50433;-74
2023/05/01 06:26:29;;;;;;;;;;;;;;;19.48;49.16;101233.00;2275719;77;51688;-74
2023/05/01 06:29:31;;;;;;;;;;;;;;;19.46;49.18;101229.64;2297052;76;51477;-74
2023/05/01 06:32:32;;;;;;;;;;;;;;;19.49;49.09;101231.97;2275922;77;51598;-73
2023/05/01 06:35:34;;;;;;;;;;;;;;;19.57;49.00;101240.84;2256876;76;51693;-73
2023/05/01 06:38:36;;;;;;;;;;;;;;;19.64;48.93;101237.44;2325574;76;51474;-74
2023/05/01 06:41:37;;;;;;;;;;;;;;;19.66;48.80;101238.11;2336558;76;50763;-74
2023/05/01 06:44:39;;;;;;;;;;;;;;;19.66;48.82;101228.72;2336313;76;51417;-74
2023/05/01 06:47:40;;;;;;;;;;;;;;;19.69;48.78;101229.73;2340987;75;50298;-74
2023/05/01 06:50:42;;;;;;;;;;;;;;;19.67;48.74;101238.45;2341045;75;50383;-74
2023/05/01 06:53:44;;;;;;;;;;;;;;;19.67;48.77;101237.95;2336530;76;50374;-75
2023/05/01 06:56:45;;;;;;;;;;;;;;;19.65;48.69;101231.91;2336514;75;49983;-74
2023/05/01 06:59:47;;;;;;;;;;;;;;;19.67;48.72;101226.37;2340978;75;51079;-74
2023/05/01 07:02:48;;;;;;;;;;;;;;;19.66;48.65;101236.25;2340931;75;50149;-73
2023/05/01 07:05:50;;;;;;;;;;;;;;;19.62;48.70;101233.58;2324289;75;50657;-73
2023/05/01 07:08:52;;;;;;;;;;;;;;;19.62;48.69;101229.55;2334559;76;51445;-74
2023/05/01 07:11:55;;;;;;;;;;;;;;;19.61;48.72;101233.27;2274832;76;50112;-74
2023/05/01 07:14:56;;;;;;;;;;;;;;;19.61;48.80;101229.23;2334217;76;22943;-74
2023/05/01 07:18:00;;;;;;;;;;;;;;;19.58;48.80;101227.73;2334207;76;51603;-73
2023/05/01 07:21:01;;;;;;;;;;;;;;;19.57;48.73;101222.05;2300748;76;50308;-74
2023/05/01 07:24:03;;;;;;;;;;;;;;;19.58;48.76;101225.05;2274637;76;51263;-74
2023/05/01 07:27:05;;;;;;;;;;;;;;;19.60;48.76;101218.18;2300189;76;51609;-75
2023/05/01 07:30:07;;;;;;;;;;;;;;;19.59;48.76;101216.48;2300075;76;50444;-74
2023/05/01 07:33:10;;;;;;;;;;;;;;;19.57;48.81;101214.00;2334155;76;51602;-74
2023/05/01 07:36:11;;;;;;;;;;;;;;;19.58;48.73;101209.46;2263738;75;50157;-74
2023/05/01 07:39:13;;;;;;;;;;;;;;;19.60;48.77;101204.75;2323795;75;49972;-74
2023/05/01 07:42:15;;;;;;;;;;;;;;;19.58;48.76;101208.95;2296982;76;50491;-75
2023/05/01 07:45:17;;;;;;;;;;;;;;;19.55;48.76;101200.42;2296857;77;50298;-74
2023/05/01 07:48:18;;;;;;;;;;;;;;;19.51;48.74;101198.58;2275579;76;51571;-74
2023/05/01 07:51:20;;;;;;;;;;;;;;;19.48;48.79;101198.10;2297195;77;51491;-74
2023/05/01 07:54:21;;;;;;;;;;;;;;;19.44;48.84;101189.55;2296906;76;51455;-73
2023/05/01 07:57:23;;;;;;;;;;;;;;;19.45;48.91;101191.75;2275973;77;50703;-73
2023/05/01 08:00:25;;;;;;;;;;;;;;;19.45;48.91;101186.38;2250942;77;49745;-73
2023/05/01 08:03:28;;;;;;;;;;;;;;;19.45;48.94;101185.87;2275710;77;50290;-74
2023/05/01 08:06:30;;;;;;;;;;;;;;;19.45;48.92;101173.80;2302394;76;50810;-74
2023/05/01 08:09:32;;;;;;;;;;;;;;;19.45;48.97;101175.14;2295165;76;50402;-74
2023/05/01 08:12:33;;;;;;;;;;;;;;;19.44;49.02;101168.08;2273459;77;52215;-74
2023/05/01 08:15:37;;;;;;;;;;;;;;;19.45;49.01;101176.98;2299327;77;50423;-74
2023/05/01 08:18:38;;;;;;;;;;;;;;;19.43;49.04;101169.61;2299401;77;22453;-73
2023/05/01 08:21:40;;;;;;;;;;;;;;;19.42;49.08;101165.23;2295242;77;51555;-73
2023/05/01 08:24:41;;;;;;;;;;;;;;;19.41;49.07;101162.23;2299320;77;53453;-73
2023/05/01 08:27:43;;;;;;;;;;;;;;;19.42;49.05;101163.89;2299340;77;51028;-74
2023/05/01 08:30:45;;;;;;;;;;;;;;;19.40;49.04;101165.95;2295285;76;50643;-74
2023/05/01 08:33:46;;;;;;;;;;;;;;;19.39;49.06;101158.38;2299230;77;50439;-73
2023/05/01 08:36:48;;;;;;;;;;;;;;;19.35;49.16;101158.42;2315648;76;51116;-72
2023/05/01 08:39:49;;;;;;;;;;;;;;;19.35;49.16;101158.42;2336477;76;50285;-74
2023/05/01 08:42:51;;;;;;;;;;;;;;;19.35;49.17;101157.91;2336494;76;50301;-73
2023/05/01 08:45:54;;;;;;;;;;;;;;;19.34;49.21;101154.91;2336492;75;50308;-74
2023/05/01 08:48:56;;;;;;;;;;;;;;;19.32;49.25;101151.55;2340851;75;51746;-74
2023/05/01 08:51:57;;;;;;;;;;;;;;;19.35;49.18;101143.14;2336633;76;51573;-74
2023/05/01 08:55:00;;;;;;;;;;;;;;;19.34;49.23;101138.80;2336427;76;50354;-74
2023/05/01 08:58:02;;;;;;;;;;;;;;;19.35;49.20;101135.61;2336642;76;51598;-74
2023/05/01 09:01:04;;;;;;;;;;;;;;;19.36;49.14;101130.05;2341019;75;49716;-73
2023/05/01 09:04:06;;;;;;;;;;;;;;;19.38;49.13;101125.03;2339443;75;50308;-74
2023/05/01 09:07:08;;;;;;;;;;;;;;;19.38;49.15;101126.37;2319221;76;51656;-74
2023/05/01 09:10:11;;;;;;;;;;;;;;;19.36;49.06;101120.66;2336456;76;50162;-74
2023/05/01 09:13:12;;;;;;;;;;;;;;;19.34;49.11;101115.13;2340899;75;52443;-75
2023/05/01 09:16:14;;;;;;;;;;;;;;;19.31;49.19;101109.61;2336347;75;50253;-73
2023/05/01 09:19:15;;;;;;;;;;;;;;;19.32;49.18;101100.57;2336482;75;51520;-74
2023/05/01 09:22:17;;;;;;;;;;;;;;;19.31;49.25;101098.88;2336465;75;51558;-74
2023/05/01 09:25:19;;;;;;;;;;;;;;;19.29;49.23;101095.56;2340588;75;52308;-74
2023/05/01 09:28:22;;;;;;;;;;;;;;;19.24;49.37;101091.72;2341045;75;51674;-74
2023/05/01 09:31:27;;;;;;;;;;;;;;;19.23;49.38;101097.59;2337271;75;51533;-74
2023/05/01 09:34:27;;;;;;;;;;;;;;;19.22;49.43;101085.72;2330943;75;22517;-73
2023/05/01 09:37:32;;;;;;;;;;;;;;;19.21;49.48;101089.39;2323573;76;51563;-73
2023/05/01 09:40:34;;;;;;;;;;;;;;;19.20;49.45;101079.69;2341867;75;50915;-73
2023/05/01 09:43:35;;;;;;;;;;;;;;;19.16;49.52;101077.84;2339603;76;50405;-73
2023/05/01 09:46:39;;;;;;;;;;;;;;;19.15;49.58;101079.69;2336832;75;50353;-74
2023/05/01 09:49:44;;;;;;;;;;;;;;;19.13;49.65;101066.12;2314261;76;49693;-74
2023/05/01 09:52:47;;;;;;;;;;;;;;;19.14;49.65;101066.48;2343907;75;51564;-73
2023/05/01 09:55:53;;;;;;;;;;;;;;;19.11;49.73;101063.64;2338843;75;51781;-76
2023/05/01 09:58:55;;;;;;;;;;;;;;;19.10;49.70;101059.27;2336966;75;50432;-74
2023/05/01 10:01:57;;;;;;;;;;;;;;;19.09;49.76;101054.93;2336899;75;50825;-73
2023/05/01 10:04:59;;;;;;;;;;;;;;;19.10;49.75;101050.39;2337196;76;51547;-74
2023/05/01 10:08:02;;;;;;;;;;;;;;;19.09;49.78;101054.93;2314489;76;50780;-74
2023/05/01 10:11:04;;;;;;;;;;;;;;;19.09;49.79;101050.08;2344977;76;50729;-74
2023/05/01 10:14:07;;;;;;;;;;;;;;;19.11;49.79;101045.34;2286798;76;51625;-75
2023/05/01 10:17:22;;;;;;;;;;;;;;;19.11;49.73;101042.19;2344586;76;50784;-74
2023/05/01 10:20:21;;;;;;;;;;;;;;;19.10;49.78;101035.64;2343966;76;23260;-74
2023/05/01 10:23:24;;;;;;;;;;;;;;;19.10;49.77;101035.64;2312383;76;51504;-73
2023/05/01 10:26:26;;;;;;;;;;;;;;;19.10;49.75;101030.28;2311909;76;51427;-74
2023/05/01 10:29:28;;;;;;;;;;;;;;;19.08;49.83;101029.10;2312647;76;50847;-75
2023/05/01 10:32:31;;;;;;;;;;;;;;;19.07;49.85;101026.61;2344600;76;51469;-74
2023/05/01 10:35:33;;;;;;;;;;;;;;;19.07;49.83;101015.89;2332300;76;50591;-74
2023/05/01 10:38:35;;;;;;;;;;;;;;;19.06;49.88;101016.87;2294671;76;52624;-74
2023/05/01 10:41:55;;;;;;;;;;;;;;;19.05;49.89;101013.88;2334174;76;50668;-73
2023/05/01 10:44:58;;;;;;;;;;;;;;;19.05;49.90;101008.52;2334011;76;51661;-75
2023/05/01 10:48:00;;;;;;;;;;;;;;;19.03;49.92;100998.47;2333500;76;51552;-73
2023/05/01 10:51:09;;;;;;;;;;;;;;;19.01;49.93;100987.94;2300002;76;52500;-73
2023/05/01 10:54:16;;;;;;;;;;;;;;;19.03;49.97;100987.73;2333993;76;51585;-74
2023/05/01 10:57:19;;;;;;;;;;;;;;;19.02;50.00;100987.42;2334238;76;51631;-75
2023/05/01 11:00:21;;;;;;;;;;;;;;;18.99;50.00;100976.55;2328940;76;51466;-74
2023/05/01 11:03:24;;;;;;;;;;;;;;;19.02;50.00;100978.03;2275096;76;51835;-74
2023/05/01 11:06:26;;;;;;;;;;;;;;;19.02;50.03;100970.81;2316098;76;50821;-74
2023/05/01 11:09:47;;;;;;;;;;;;;;;19.01;50.02;100969.64;2336464;76;50060;-75
2023/05/01 11:12:50;;;;;;;;;;;;;;;19.00;50.03;100953.23;2336530;75;50713;-74
2023/05/01 11:15:52;;;;;;;;;;;;;;;18.97;50.12;100953.59;2340669;75;52618;-74
2023/05/01 11:18:53;;;;;;;;;;;;;;;18.93;50.16;100943.23;2336384;75;50340;-74
2023/05/01 11:21:55;;;;;;;;;;;;;;;18.92;50.23;100940.20;2336471;75;50387;-74
2023/05/01 11:24:56;;;;;;;;;;;;;;;18.92;50.22;100938.04;2336343;75;50700;-74
2023/05/01 11:28:00;;;;;;;;;;;;;;;18.95;50.19;100937.67;2336604;76;50280;-74
2023/05/01 11:31:02;;;;;;;;;;;;;;;18.94;50.19;100922.61;2336548;76;51559;-74
2023/05/01 11:34:05;;;;;;;;;;;;;;;18.96;50.18;100923.27;2339751;75;52391;-73
2023/05/01 11:37:07;;;;;;;;;;;;;;;18.96;50.18;100913.03;2310007;76;51642;-74
2023/05/01 11:40:10;;;;;;;;;;;;;;;18.97;50.17;100909.35;2239324;77;52469;-74
2023/05/01 11:43:13;;;;;;;;;;;;;;;18.96;50.18;100898.28;2295981;77;51745;-74
2023/05/01 11:46:15;;;;;;;;;;;;;;;18.98;50.11;100901.63;2296702;77;51428;-75
2023/05/01 11:49:16;;;;;;;;;;;;;;;18.96;50.19;100895.59;2275677;77;50663;-75
2023/05/01 11:52:18;;;;;;;;;;;;;;;18.99;50.11;100894.75;2250691;77;52381;-74
2023/05/01 11:55:20;;;;;;;;;;;;;;;18.97;50.14;100891.92;2296929;77;51456;-74
2023/05/01 11:58:36;;;;;;;;;;;;;;;18.98;50.15;100889.55;2297034;77;51442;-75
2023/05/01 12:01:38;;;;;;;;;;;;;;;18.97;50.18;100878.00;2275155;77;22345;-73
2023/05/01 12:04:41;;;;;;;;;;;;;;;18.98;50.15;100875.63;2281226;76;49667;-73
2023/05/01 12:07:43;;;;;;;;;;;;;;;18.99;50.17;100878.66;2294674;76;51644;-75
2023/05/01 12:10:45;;;;;;;;;;;;;;;18.98;50.18;100870.27;2312399;76;51429;-73
2023/05/01 12:13:49;;;;;;;;;;;;;;;18.96;50.22;100861.59;2344352;76;50742;-73
2023/05/01 12:16:50;;;;;;;;;;;;;;;18.95;50.30;100856.41;2344747;75;25865;-73
2023/05/01 12:19:52;;;;;;;;;;;;;;;18.97;50.29;100858.41;2344509;76;51498;-73
2023/05/01 12:22:53;;;;;;;;;;;;;;;18.97;50.25;100857.06;2312547;76;50569;-73
2023/05/01 12:25:55;;;;;;;;;;;;;;;18.95;50.27;100850.52;2344398;76;51518;-75
2023/05/01 12:28:57;;;;;;;;;;;;;;;18.94;50.34;100844.84;2312520;76;52749;-74
2023/05/01 12:31:59;;;;;;;;;;;;;;;18.95;50.33;100840.31;2344601;75;50323;-73
2023/05/01 12:35:01;;;;;;;;;;;;;;;18.95;50.34;100845.67;2334191;76;50319;-74
2023/05/01 12:38:12;;;;;;;;;;;;;;;18.96;50.35;100842.83;2292750;75;51498;-75
2023/05/01 12:41:14;;;;;;;;;;;;;;;18.96;50.33;100836.13;2239291;77;52511;-74
2023/05/01 12:44:17;;;;;;;;;;;;;;;18.95;50.37;100828.25;2296858;76;51560;-74
2023/05/01 12:47:19;;;;;;;;;;;;;;;18.97;50.34;100835.09;2297059;76;50528;-74
2023/05/01 12:50:21;;;;;;;;;;;;;;;18.95;50.37;100819.69;2297014;76;52188;-74
2023/05/01 12:53:23;;;;;;;;;;;;;;;18.97;50.35;100819.52;2297087;77;51463;-74
2023/05/01 12:56:24;;;;;;;;;;;;;;;18.98;50.32;100814.47;2275519;77;50704;-73
2023/05/01 12:59:26;;;;;;;;;;;;;;;18.99;50.32;100818.84;2275743;77;50010;-75
2023/05/01 13:02:31;;;;;;;;;;;;;;;18.97;50.34;100816.84;2297138;77;51704;-73
2023/05/01 13:05:33;;;;;;;;;;;;;;;18.98;50.31;100805.91;2280775;76;49624;-72
2023/05/01 13:08:42;;;;;;;;;;;;;;;18.96;50.36;100810.65;2325188;76;50443;-74
2023/05/01 13:11:41;;;;;;;;;;;;;;;18.96;50.37;100800.41;2340083;76;23329;-74
2023/05/01 13:14:42;;;;;;;;;;;;;;;18.98;50.36;100801.06;2336257;76;50753;-74
2023/05/01 13:17:44;;;;;;;;;;;;;;;18.96;50.38;100799.06;2340930;75;50686;-74
2023/05/01 13:20:46;;;;;;;;;;;;;;;18.99;50.36;100794.19;2336774;75;51610;-74
2023/05/01 13:23:57;;;;;;;;;;;;;;;18.97;50.39;100801.58;2336573;76;50292;-74
2023/05/01 13:26:59;;;;;;;;;;;;;;;19.00;50.36;100793.67;2336848;76;50484;-73
2023/05/01 13:30:01;;;;;;;;;;;;;;;18.99;50.38;100792.02;2340990;75;51223;-73
2023/05/01 13:33:06;;;;;;;;;;;;;;;19.02;50.33;100784.95;2341002;75;50293;-74
2023/05/01 13:36:07;;;;;;;;;;;;;;;18.99;50.43;100774.59;2330324;75;22309;-73
2023/05/01 13:39:10;;;;;;;;;;;;;;;18.98;50.50;100773.73;2336424;76;51575;-73
2023/05/01 13:42:12;;;;;;;;;;;;;;;18.98;50.51;100768.38;2340895;75;51238;-73
2023/05/01 13:45:14;;;;;;;;;;;;;;;18.95;50.65;100774.11;2336370;76;51479;-74
2023/05/01 13:48:17;;;;;;;;;;;;;;;18.96;50.64;100766.89;2340669;75;50473;-74
2023/05/01 13:51:22;;;;;;;;;;;;;;;18.99;50.59;100766.03;2336422;76;51545;-73
2023/05/01 13:54:23;;;;;;;;;;;;;;;18.97;50.73;100765.89;2336195;76;51492;-74
2023/05/01 13:57:25;;;;;;;;;;;;;;;18.95;50.82;100763.89;2336504;76;51515;-74
2023/05/01 14:00:27;;;;;;;;;;;;;;;18.97;50.86;100761.87;2336556;76;50735;-74
2023/05/01 14:03:29;;;;;;;;;;;;;;;18.98;50.94;100755.48;2336401;75;51333;-74
2023/05/01 14:06:30;;;;;;;;;;;;;;;18.99;51.05;100746.44;2316316;76;50386;-74
2023/05/01 14:09:33;;;;;;;;;;;;;;;19.00;51.11;100746.75;2275681;77;50727;-73
2023/05/01 14:12:35;;;;;;;;;;;;;;;19.01;51.19;100739.88;2297217;77;50731;-75
2023/05/01 14:15:41;;;;;;;;;;;;;;;19.02;51.19;100739.36;2297471;77;50257;-74
2023/05/01 14:18:44;;;;;;;;;;;;;;;19.05;51.20;100744.35;2297528;76;22403;-75
2023/05/01 14:21:45;;;;;;;;;;;;;;;19.04;51.26;100732.80;2297802;76;51599;-75
2023/05/01 14:24:47;;;;;;;;;;;;;;;19.07;51.31;100728.91;2297691;76;50690;-75
2023/05/01 14:27:49;;;;;;;;;;;;;;;19.09;51.27;100717.50;2297864;77;50709;-74
2023/05/01 14:30:51;;;;;;;;;;;;;;;19.09;51.39;100713.48;2251769;77;51047;-74
2023/05/01 14:33:54;;;;;;;;;;;;;;;19.09;51.47;100717.50;2318956;75;50736;-74
2023/05/01 14:36:57;;;;;;;;;;;;;;;19.11;51.44;100722.14;2321904;75;51769;-74
2023/05/01 14:39:59;;;;;;;;;;;;;;;19.13;51.27;100709.39;2298063;76;50474;-75
2023/05/01 14:43:01;;;;;;;;;;;;;;;19.10;51.16;100707.08;2276680;76;52820;-76
2023/05/01 14:46:03;;;;;;;;;;;;;;;19.11;51.03;100706.05;2276691;77;50284;-74
2023/05/01 14:49:04;;;;;;;;;;;;;;;19.11;51.01;100704.71;2298081;76;50635;-74
2023/05/01 14:52:06;;;;;;;;;;;;;;;19.15;51.33;100702.00;2276866;77;50009;-74
2023/05/01 14:55:08;;;;;;;;;;;;;;;19.24;52.19;100704.92;2276524;77;51684;-76
2023/05/01 14:58:09;;;;;;;;;;;;;;;19.31;52.30;100707.16;2298225;76;50371;-75
2023/05/01 15:01:11;;;;;;;;;;;;;;;19.28;52.23;100704.03;2324418;75;50264;-74
2023/05/01 15:04:13;;;;;;;;;;;;;;;19.29;52.43;100700.31;2333166;75;50449;-75
2023/05/01 15:07:14;;;;;;;;;;;;;;;19.31;53.55;100691.58;2295604;76;51162;-75
2023/05/01 15:10:16;;;;;;;;;;;;;;;19.35;53.50;100700.41;2312419;76;50472;-75
2023/05/01 15:13:18;;;;;;;;;;;;;;;19.36;53.45;100696.70;2287442;77;50679;-75
2023/05/01 15:16:20;;;;;;;;;;;;;;;19.39;53.38;100693.33;2331936;75;50002;-73
2023/05/01 15:19:21;;;;;;;;;;;;;;;19.36;52.96;100701.23;2309827;76;49531;-75
2023/05/01 15:22:23;;;;;;;;;;;;;;;19.31;52.88;100685.69;2337969;75;50680;-74
2023/05/01 15:25:24;;;;;;;;;;;;;;;19.29;52.82;100689.58;2341811;75;50715;-75
2023/05/01 15:28:26;;;;;;;;;;;;;;;19.25;52.86;100689.13;2341436;75;50305;-75
2023/05/01 15:31:29;;;;;;;;;;;;;;;19.28;52.74;100691.44;2341482;75;51687;-75
2023/05/01 15:34:30;;;;;;;;;;;;;;;19.28;52.17;100691.95;2334006;75;51545;-75